French Corral, California
Current Conditions -  °F | °C
As of 6:58 PM on Monday 26 Jan 2015 (Local Time) from KBAB Reporting Station
Few Clouds Few Clouds  
Wind Chill: 51°   Ceiling: Unl
Heat Index: 51°   Visibility: 10mi
Dew Point: 49°   Wind: 3mph
Humidity: 95%   Direction: 100°E
Pressure: 29.98"   Gusts: NA
Location:  39.1816°N, 121.266°W
Report Text: KBAB 270258Z AUTO 10003KT 10SM FEW200 10/10 A2998 RMK AO2 SLP230 T01030095 52008 $
Loading
Personal Weather Stations






























Interactive Weather Map New forecast layout! Learn more

10-Day Weather Forecast

Advertisements
Track Severe Weather on mobile